sensor_id;sensor_type;location;lat;lon;timestamp;P1;durP1;ratioP1;P2;durP2;ratioP2
13048;SDS011;6591;51.446;5.404;2024-02-16T00:00:11;3.63;;;2.33;;
13048;SDS011;6591;51.446;5.404;2024-02-16T00:02:39;3.30;;;2.37;;
13048;SDS011;6591;51.446;5.404;2024-02-16T00:05:09;4.10;;;2.67;;
13048;SDS011;6591;51.446;5.404;2024-02-16T00:07:40;3.07;;;2.20;;
13048;SDS011;6591;51.446;5.404;2024-02-16T00:10:07;2.70;;;2.23;;
13048;SDS011;6591;51.446;5.404;2024-02-16T00:12:35;3.00;;;1.93;;
13048;SDS011;6591;51.446;5.404;2024-02-16T00:15:04;2.63;;;1.80;;
13048;SDS011;6591;51.446;5.404;2024-02-16T00:17:33;3.97;;;2.43;;
13048;SDS011;6591;51.446;5.404;2024-02-16T00:20:00;5.20;;;2.10;;
13048;SDS011;6591;51.446;5.404;2024-02-16T00:22:28;2.60;;;2.27;;
13048;SDS011;6591;51.446;5.404;2024-02-16T00:24:55;2.27;;;1.83;;
13048;SDS011;6591;51.446;5.404;2024-02-16T00:27:22;3.07;;;2.30;;
13048;SDS011;6591;51.446;5.404;2024-02-16T00:29:49;3.70;;;2.37;;
13048;SDS011;6591;51.446;5.404;2024-02-16T00:32:16;3.47;;;2.30;;
13048;SDS011;6591;51.446;5.404;2024-02-16T00:34:43;2.93;;;1.90;;
13048;SDS011;6591;51.446;5.404;2024-02-16T00:37:10;4.10;;;2.43;;
13048;SDS011;6591;51.446;5.404;2024-02-16T00:39:40;3.00;;;2.10;;
13048;SDS011;6591;51.446;5.404;2024-02-16T00:42:08;4.17;;;2.20;;
13048;SDS011;6591;51.446;5.404;2024-02-16T00:44:36;3.07;;;2.30;;
13048;SDS011;6591;51.446;5.404;2024-02-16T00:47:03;2.63;;;2.07;;
13048;SDS011;6591;51.446;5.404;2024-02-16T00:49:33;2.90;;;2.20;;
13048;SDS011;6591;51.446;5.404;2024-02-16T00:52:01;3.07;;;2.17;;
13048;SDS011;6591;51.446;5.404;2024-02-16T00:54:32;2.93;;;2.00;;
13048;SDS011;6591;51.446;5.404;2024-02-16T00:56:59;2.47;;;2.20;;
13048;SDS011;6591;51.446;5.404;2024-02-16T00:59:29;2.40;;;2.00;;
13048;SDS011;6591;51.446;5.404;2024-02-16T01:01:57;2.80;;;2.20;;
13048;SDS011;6591;51.446;5.404;2024-02-16T01:04:24;2.23;;;2.03;;
13048;SDS011;6591;51.446;5.404;2024-02-16T01:06:51;2.83;;;2.10;;
13048;SDS011;6591;51.446;5.404;2024-02-16T01:09:18;3.13;;;2.00;;
13048;SDS011;6591;51.446;5.404;2024-02-16T01:11:45;4.23;;;2.70;;
13048;SDS011;6591;51.446;5.404;2024-02-16T01:14:14;4.50;;;2.13;;
13048;SDS011;6591;51.446;5.404;2024-02-16T01:16:41;2.53;;;2.07;;
13048;SDS011;6591;51.446;5.404;2024-02-16T01:19:09;2.43;;;1.90;;
13048;SDS011;6591;51.446;5.404;2024-02-16T01:21:36;3.53;;;2.00;;
13048;SDS011;6591;51.446;5.404;2024-02-16T01:24:03;2.53;;;2.20;;
13048;SDS011;6591;51.446;5.404;2024-02-16T01:26:32;2.90;;;2.10;;
13048;SDS011;6591;51.446;5.404;2024-02-16T01:28:59;2.20;;;2.00;;
13048;SDS011;6591;51.446;5.404;2024-02-16T01:31:29;3.10;;;2.17;;
13048;SDS011;6591;51.446;5.404;2024-02-16T01:33:56;2.47;;;2.10;;
13048;SDS011;6591;51.446;5.404;2024-02-16T01:36:23;2.30;;;2.03;;
13048;SDS011;6591;51.446;5.404;2024-02-16T01:38:50;3.00;;;1.87;;
13048;SDS011;6591;51.446;5.404;2024-02-16T01:41:17;3.63;;;2.10;;
13048;SDS011;6591;51.446;5.404;2024-02-16T01:43:44;4.23;;;2.50;;
13048;SDS011;6591;51.446;5.404;2024-02-16T01:46:11;2.40;;;2.00;;
13048;SDS011;6591;51.446;5.404;2024-02-16T01:48:38;3.47;;;2.10;;
13048;SDS011;6591;51.446;5.404;2024-02-16T01:51:07;2.37;;;2.10;;
13048;SDS011;6591;51.446;5.404;2024-02-16T01:53:36;2.40;;;1.90;;
13048;SDS011;6591;51.446;5.404;2024-02-16T01:56:04;2.13;;;1.87;;
13048;SDS011;6591;51.446;5.404;2024-02-16T01:58:33;3.37;;;2.27;;
13048;SDS011;6591;51.446;5.404;2024-02-16T02:01:01;1.97;;;1.77;;
13048;SDS011;6591;51.446;5.404;2024-02-16T02:03:28;3.53;;;2.17;;
13048;SDS011;6591;51.446;5.404;2024-02-16T02:05:55;2.50;;;2.27;;
13048;SDS011;6591;51.446;5.404;2024-02-16T02:08:24;2.87;;;2.27;;
13048;SDS011;6591;51.446;5.404;2024-02-16T02:10:52;2.63;;;2.17;;
13048;SDS011;6591;51.446;5.404;2024-02-16T02:13:20;4.30;;;2.07;;
13048;SDS011;6591;51.446;5.404;2024-02-16T02:15:48;2.97;;;2.20;;
13048;SDS011;6591;51.446;5.404;2024-02-16T02:18:16;2.40;;;2.20;;
13048;SDS011;6591;51.446;5.404;2024-02-16T02:20:43;4.73;;;2.50;;
13048;SDS011;6591;51.446;5.404;2024-02-16T02:23:10;5.63;;;2.40;;
13048;SDS011;6591;51.446;5.404;2024-02-16T02:25:37;3.40;;;2.00;;
13048;SDS011;6591;51.446;5.404;2024-02-16T02:28:06;3.33;;;2.00;;
13048;SDS011;6591;51.446;5.404;2024-02-16T02:30:34;2.27;;;2.07;;
13048;SDS011;6591;51.446;5.404;2024-02-16T02:33:01;2.27;;;2.07;;
13048;SDS011;6591;51.446;5.404;2024-02-16T02:35:29;3.63;;;2.10;;
13048;SDS011;6591;51.446;5.404;2024-02-16T02:37:56;2.50;;;2.20;;
13048;SDS011;6591;51.446;5.404;2024-02-16T02:40:22;2.80;;;2.17;;
13048;SDS011;6591;51.446;5.404;2024-02-16T02:42:51;3.17;;;2.43;;
13048;SDS011;6591;51.446;5.404;2024-02-16T02:45:18;3.00;;;2.20;;
13048;SDS011;6591;51.446;5.404;2024-02-16T02:47:45;2.90;;;2.20;;
13048;SDS011;6591;51.446;5.404;2024-02-16T02:50:13;2.40;;;1.80;;
13048;SDS011;6591;51.446;5.404;2024-02-16T02:52:40;4.73;;;1.90;;
13048;SDS011;6591;51.446;5.404;2024-02-16T02:55:07;4.17;;;1.83;;
13048;SDS011;6591;51.446;5.404;2024-02-16T02:57:34;2.43;;;2.13;;
13048;SDS011;6591;51.446;5.404;2024-02-16T03:00:07;4.43;;;2.20;;
13048;SDS011;6591;51.446;5.404;2024-02-16T03:02:39;2.30;;;2.00;;
13048;SDS011;6591;51.446;5.404;2024-02-16T03:05:07;2.13;;;1.93;;
13048;SDS011;6591;51.446;5.404;2024-02-16T03:07:34;4.57;;;2.20;;
13048;SDS011;6591;51.446;5.404;2024-02-16T03:10:02;2.37;;;1.97;;
13048;SDS011;6591;51.446;5.404;2024-02-16T03:12:31;3.07;;;2.40;;
13048;SDS011;6591;51.446;5.404;2024-02-16T03:14:59;3.00;;;2.10;;
13048;SDS011;6591;51.446;5.404;2024-02-16T03:17:26;8.60;;;2.70;;
13048;SDS011;6591;51.446;5.404;2024-02-16T03:19:54;3.47;;;2.20;;
13048;SDS011;6591;51.446;5.404;2024-02-16T03:22:21;3.17;;;1.90;;
13048;SDS011;6591;51.446;5.404;2024-02-16T03:24:49;3.00;;;2.23;;
13048;SDS011;6591;51.446;5.404;2024-02-16T03:27:16;2.30;;;2.00;;
13048;SDS011;6591;51.446;5.404;2024-02-16T03:29:43;3.07;;;2.30;;
13048;SDS011;6591;51.446;5.404;2024-02-16T03:32:10;2.67;;;2.07;;
13048;SDS011;6591;51.446;5.404;2024-02-16T03:34:37;3.20;;;2.20;;
13048;SDS011;6591;51.446;5.404;2024-02-16T03:37:04;2.10;;;1.90;;
13048;SDS011;6591;51.446;5.404;2024-02-16T03:39:32;2.60;;;2.10;;
13048;SDS011;6591;51.446;5.404;2024-02-16T03:41:59;2.70;;;2.00;;
13048;SDS011;6591;51.446;5.404;2024-02-16T03:44:26;2.43;;;2.13;;
13048;SDS011;6591;51.446;5.404;2024-02-16T03:46:53;3.30;;;1.87;;
13048;SDS011;6591;51.446;5.404;2024-02-16T03:49:22;2.47;;;2.27;;
13048;SDS011;6591;51.446;5.404;2024-02-16T03:51:49;2.60;;;2.20;;
13048;SDS011;6591;51.446;5.404;2024-02-16T03:54:16;3.33;;;2.30;;
13048;SDS011;6591;51.446;5.404;2024-02-16T03:56:43;3.33;;;2.07;;
13048;SDS011;6591;51.446;5.404;2024-02-16T03:59:11;6.47;;;2.17;;
13048;SDS011;6591;51.446;5.404;2024-02-16T04:01:38;3.03;;;2.10;;
13048;SDS011;6591;51.446;5.404;2024-02-16T04:04:08;2.60;;;2.00;;
13048;SDS011;6591;51.446;5.404;2024-02-16T04:06:35;2.97;;;2.07;;
13048;SDS011;6591;51.446;5.404;2024-02-16T04:09:02;2.80;;;2.30;;
13048;SDS011;6591;51.446;5.404;2024-02-16T04:11:30;2.67;;;2.17;;
13048;SDS011;6591;51.446;5.404;2024-02-16T04:13:58;2.57;;;2.00;;
13048;SDS011;6591;51.446;5.404;2024-02-16T04:16:25;3.33;;;2.20;;
13048;SDS011;6591;51.446;5.404;2024-02-16T04:18:52;3.33;;;2.07;;
13048;SDS011;6591;51.446;5.404;2024-02-16T04:21:19;2.57;;;1.80;;
13048;SDS011;6591;51.446;5.404;2024-02-16T04:23:47;3.90;;;2.30;;
13048;SDS011;6591;51.446;5.404;2024-02-16T04:26:15;3.10;;;2.10;;
13048;SDS011;6591;51.446;5.404;2024-02-16T04:28:42;2.73;;;2.30;;
13048;SDS011;6591;51.446;5.404;2024-02-16T04:31:09;2.60;;;2.37;;
13048;SDS011;6591;51.446;5.404;2024-02-16T04:33:36;3.40;;;2.10;;
13048;SDS011;6591;51.446;5.404;2024-02-16T04:36:05;3.37;;;2.20;;
13048;SDS011;6591;51.446;5.404;2024-02-16T04:38:34;2.63;;;2.00;;
13048;SDS011;6591;51.446;5.404;2024-02-16T04:41:01;2.10;;;1.90;;
13048;SDS011;6591;51.446;5.404;2024-02-16T04:43:31;3.73;;;2.23;;
13048;SDS011;6591;51.446;5.404;2024-02-16T04:45:58;2.57;;;2.10;;
13048;SDS011;6591;51.446;5.404;2024-02-16T04:48:26;2.90;;;2.00;;
13048;SDS011;6591;51.446;5.404;2024-02-16T04:50:53;3.40;;;2.20;;
13048;SDS011;6591;51.446;5.404;2024-02-16T04:53:20;2.83;;;2.00;;
13048;SDS011;6591;51.446;5.404;2024-02-16T04:55:47;3.83;;;2.30;;
13048;SDS011;6591;51.446;5.404;2024-02-16T04:58:14;4.23;;;2.40;;
13048;SDS011;6591;51.446;5.404;2024-02-16T05:00:41;3.17;;;2.03;;
13048;SDS011;6591;51.446;5.404;2024-02-16T05:03:08;3.50;;;2.00;;
13048;SDS011;6591;51.446;5.404;2024-02-16T05:05:35;4.03;;;2.60;;
13048;SDS011;6591;51.446;5.404;2024-02-16T05:08:03;2.57;;;2.00;;
13048;SDS011;6591;51.446;5.404;2024-02-16T05:10:31;2.53;;;2.07;;
13048;SDS011;6591;51.446;5.404;2024-02-16T05:12:59;4.77;;;1.90;;
13048;SDS011;6591;51.446;5.404;2024-02-16T05:15:26;3.03;;;2.40;;
13048;SDS011;6591;51.446;5.404;2024-02-16T05:17:54;2.97;;;2.63;;
13048;SDS011;6591;51.446;5.404;2024-02-16T05:20:21;3.23;;;2.00;;
13048;SDS011;6591;51.446;5.404;2024-02-16T05:22:49;2.70;;;2.40;;
13048;SDS011;6591;51.446;5.404;2024-02-16T05:25:17;3.30;;;2.07;;
13048;SDS011;6591;51.446;5.404;2024-02-16T05:27:45;4.23;;;2.00;;
13048;SDS011;6591;51.446;5.404;2024-02-16T05:30:16;2.77;;;2.23;;
13048;SDS011;6591;51.446;5.404;2024-02-16T05:32:43;3.60;;;2.00;;
13048;SDS011;6591;51.446;5.404;2024-02-16T05:35:11;2.97;;;2.00;;
13048;SDS011;6591;51.446;5.404;2024-02-16T05:37:44;3.50;;;2.57;;
13048;SDS011;6591;51.446;5.404;2024-02-16T05:40:23;2.27;;;2.07;;
13048;SDS011;6591;51.446;5.404;2024-02-16T05:42:57;3.30;;;2.07;;
13048;SDS011;6591;51.446;5.404;2024-02-16T05:45:24;3.40;;;2.30;;
13048;SDS011;6591;51.446;5.404;2024-02-16T05:47:53;3.57;;;2.20;;
13048;SDS011;6591;51.446;5.404;2024-02-16T05:50:21;3.43;;;2.00;;
13048;SDS011;6591;51.446;5.404;2024-02-16T05:52:49;2.53;;;2.03;;
13048;SDS011;6591;51.446;5.404;2024-02-16T05:55:17;3.63;;;2.30;;
13048;SDS011;6591;51.446;5.404;2024-02-16T05:57:45;3.07;;;2.10;;
13048;SDS011;6591;51.446;5.404;2024-02-16T06:00:12;3.93;;;2.53;;
13048;SDS011;6591;51.446;5.404;2024-02-16T06:02:42;2.40;;;2.13;;
13048;SDS011;6591;51.446;5.404;2024-02-16T06:05:09;4.10;;;2.30;;
13048;SDS011;6591;51.446;5.404;2024-02-16T06:07:37;2.43;;;1.97;;
13048;SDS011;6591;51.446;5.404;2024-02-16T06:10:05;3.43;;;2.20;;
13048;SDS011;6591;51.446;5.404;2024-02-16T06:12:38;4.07;;;2.33;;
13048;SDS011;6591;51.446;5.404;2024-02-16T06:15:06;3.10;;;2.47;;
13048;SDS011;6591;51.446;5.404;2024-02-16T06:17:33;2.63;;;2.17;;
13048;SDS011;6591;51.446;5.404;2024-02-16T06:20:03;3.77;;;2.50;;
13048;SDS011;6591;51.446;5.404;2024-02-16T06:22:31;3.40;;;2.73;;
13048;SDS011;6591;51.446;5.404;2024-02-16T06:24:58;4.27;;;2.60;;
13048;SDS011;6591;51.446;5.404;2024-02-16T06:27:25;3.77;;;2.30;;
13048;SDS011;6591;51.446;5.404;2024-02-16T06:29:52;2.73;;;2.10;;
13048;SDS011;6591;51.446;5.404;2024-02-16T06:32:20;3.47;;;2.50;;
13048;SDS011;6591;51.446;5.404;2024-02-16T06:34:47;5.03;;;2.47;;
13048;SDS011;6591;51.446;5.404;2024-02-16T06:37:14;5.97;;;2.40;;
13048;SDS011;6591;51.446;5.404;2024-02-16T06:39:41;2.83;;;2.37;;
13048;SDS011;6591;51.446;5.404;2024-02-16T06:42:09;2.97;;;2.23;;
13048;SDS011;6591;51.446;5.404;2024-02-16T06:44:38;4.70;;;2.50;;
13048;SDS011;6591;51.446;5.404;2024-02-16T06:47:06;2.60;;;2.27;;
13048;SDS011;6591;51.446;5.404;2024-02-16T06:49:33;3.87;;;2.70;;
13048;SDS011;6591;51.446;5.404;2024-02-16T06:52:00;4.10;;;2.63;;
13048;SDS011;6591;51.446;5.404;2024-02-16T06:54:27;3.27;;;2.43;;
13048;SDS011;6591;51.446;5.404;2024-02-16T06:56:55;3.30;;;2.57;;
13048;SDS011;6591;51.446;5.404;2024-02-16T06:59:22;3.93;;;2.70;;
13048;SDS011;6591;51.446;5.404;2024-02-16T07:01:49;3.23;;;2.37;;
13048;SDS011;6591;51.446;5.404;2024-02-16T07:04:16;4.20;;;2.73;;
13048;SDS011;6591;51.446;5.404;2024-02-16T07:06:44;3.37;;;2.53;;
13048;SDS011;6591;51.446;5.404;2024-02-16T07:09:11;3.93;;;2.53;;
13048;SDS011;6591;51.446;5.404;2024-02-16T07:11:42;3.20;;;2.33;;
13048;SDS011;6591;51.446;5.404;2024-02-16T07:14:16;4.30;;;2.50;;
13048;SDS011;6591;51.446;5.404;2024-02-16T07:16:44;6.10;;;2.60;;
13048;SDS011;6591;51.446;5.404;2024-02-16T07:19:11;3.47;;;2.57;;
13048;SDS011;6591;51.446;5.404;2024-02-16T07:21:39;3.40;;;2.70;;
13048;SDS011;6591;51.446;5.404;2024-02-16T07:24:06;3.27;;;2.30;;
13048;SDS011;6591;51.446;5.404;2024-02-16T07:26:33;3.17;;;2.53;;
13048;SDS011;6591;51.446;5.404;2024-02-16T07:29:00;2.93;;;2.53;;
13048;SDS011;6591;51.446;5.404;2024-02-16T07:31:31;4.23;;;2.40;;
13048;SDS011;6591;51.446;5.404;2024-02-16T07:34:01;4.93;;;2.70;;
13048;SDS011;6591;51.446;5.404;2024-02-16T07:36:29;4.10;;;2.60;;
13048;SDS011;6591;51.446;5.404;2024-02-16T07:38:56;3.37;;;2.43;;
13048;SDS011;6591;51.446;5.404;2024-02-16T07:41:23;4.97;;;3.03;;
13048;SDS011;6591;51.446;5.404;2024-02-16T07:43:50;4.30;;;2.73;;
13048;SDS011;6591;51.446;5.404;2024-02-16T07:46:17;5.20;;;2.60;;
13048;SDS011;6591;51.446;5.404;2024-02-16T07:48:44;3.23;;;2.57;;
13048;SDS011;6591;51.446;5.404;2024-02-16T07:51:11;4.17;;;2.60;;
13048;SDS011;6591;51.446;5.404;2024-02-16T07:53:38;6.90;;;3.20;;
13048;SDS011;6591;51.446;5.404;2024-02-16T07:56:07;3.43;;;2.60;;
13048;SDS011;6591;51.446;5.404;2024-02-16T07:58:34;3.57;;;2.80;;
13048;SDS011;6591;51.446;5.404;2024-02-16T08:01:01;4.50;;;2.80;;
13048;SDS011;6591;51.446;5.404;2024-02-16T08:03:29;3.83;;;2.80;;
13048;SDS011;6591;51.446;5.404;2024-02-16T08:05:57;5.73;;;3.10;;
13048;SDS011;6591;51.446;5.404;2024-02-16T08:08:24;4.07;;;2.80;;
13048;SDS011;6591;51.446;5.404;2024-02-16T08:10:52;6.00;;;2.90;;
13048;SDS011;6591;51.446;5.404;2024-02-16T08:13:19;4.63;;;2.60;;
13048;SDS011;6591;51.446;5.404;2024-02-16T08:15:47;3.60;;;2.53;;
13048;SDS011;6591;51.446;5.404;2024-02-16T08:18:14;3.27;;;2.60;;
13048;SDS011;6591;51.446;5.404;2024-02-16T08:20:42;4.33;;;3.00;;
13048;SDS011;6591;51.446;5.404;2024-02-16T08:23:09;4.27;;;2.83;;
13048;SDS011;6591;51.446;5.404;2024-02-16T08:25:36;4.30;;;2.80;;
13048;SDS011;6591;51.446;5.404;2024-02-16T08:28:03;3.60;;;2.80;;
13048;SDS011;6591;51.446;5.404;2024-02-16T08:30:31;4.67;;;3.03;;
13048;SDS011;6591;51.446;5.404;2024-02-16T08:32:59;5.03;;;2.90;;
13048;SDS011;6591;51.446;5.404;2024-02-16T08:35:26;5.67;;;3.00;;
13048;SDS011;6591;51.446;5.404;2024-02-16T08:37:54;5.20;;;3.20;;
13048;SDS011;6591;51.446;5.404;2024-02-16T08:40:21;5.97;;;2.67;;
13048;SDS011;6591;51.446;5.404;2024-02-16T08:42:50;5.90;;;2.97;;
13048;SDS011;6591;51.446;5.404;2024-02-16T08:45:17;4.37;;;3.53;;
13048;SDS011;6591;51.446;5.404;2024-02-16T08:47:44;4.30;;;3.00;;
13048;SDS011;6591;51.446;5.404;2024-02-16T08:50:15;4.57;;;2.83;;
13048;SDS011;6591;51.446;5.404;2024-02-16T08:52:42;4.03;;;3.20;;
13048;SDS011;6591;51.446;5.404;2024-02-16T08:55:10;5.60;;;3.17;;
13048;SDS011;6591;51.446;5.404;2024-02-16T08:57:39;4.70;;;3.00;;
13048;SDS011;6591;51.446;5.404;2024-02-16T09:00:06;4.17;;;3.10;;
13048;SDS011;6591;51.446;5.404;2024-02-16T09:02:34;9.60;;;3.20;;
13048;SDS011;6591;51.446;5.404;2024-02-16T09:05:01;4.67;;;3.40;;
13048;SDS011;6591;51.446;5.404;2024-02-16T09:07:28;4.70;;;3.07;;
13048;SDS011;6591;51.446;5.404;2024-02-16T09:09:55;5.03;;;3.43;;
13048;SDS011;6591;51.446;5.404;2024-02-16T09:12:22;4.20;;;2.60;;
13048;SDS011;6591;51.446;5.404;2024-02-16T09:14:50;4.57;;;3.00;;
13048;SDS011;6591;51.446;5.404;2024-02-16T09:17:17;4.97;;;2.93;;
13048;SDS011;6591;51.446;5.404;2024-02-16T09:19:45;6.37;;;3.50;;
13048;SDS011;6591;51.446;5.404;2024-02-16T09:22:12;5.17;;;3.30;;
13048;SDS011;6591;51.446;5.404;2024-02-16T09:24:39;4.63;;;3.30;;
13048;SDS011;6591;51.446;5.404;2024-02-16T09:27:07;3.40;;;3.10;;
13048;SDS011;6591;51.446;5.404;2024-02-16T09:29:36;3.97;;;3.03;;
13048;SDS011;6591;51.446;5.404;2024-02-16T09:32:03;5.47;;;3.20;;
13048;SDS011;6591;51.446;5.404;2024-02-16T09:34:32;6.17;;;3.40;;
13048;SDS011;6591;51.446;5.404;2024-02-16T09:36:59;4.20;;;3.40;;
13048;SDS011;6591;51.446;5.404;2024-02-16T09:39:26;5.63;;;3.47;;
13048;SDS011;6591;51.446;5.404;2024-02-16T09:41:54;5.90;;;3.70;;
13048;SDS011;6591;51.446;5.404;2024-02-16T09:44:22;7.27;;;3.37;;
13048;SDS011;6591;51.446;5.404;2024-02-16T09:46:49;5.90;;;3.40;;
13048;SDS011;6591;51.446;5.404;2024-02-16T09:49:20;5.17;;;3.53;;
13048;SDS011;6591;51.446;5.404;2024-02-16T09:52:01;6.03;;;3.70;;
13048;SDS011;6591;51.446;5.404;2024-02-16T09:54:32;5.83;;;3.27;;
13048;SDS011;6591;51.446;5.404;2024-02-16T09:57:01;6.07;;;3.73;;
13048;SDS011;6591;51.446;5.404;2024-02-16T09:59:30;5.13;;;3.80;;
13048;SDS011;6591;51.446;5.404;2024-02-16T10:02:02;5.47;;;3.63;;
13048;SDS011;6591;51.446;5.404;2024-02-16T10:04:30;4.67;;;3.57;;
13048;SDS011;6591;51.446;5.404;2024-02-16T10:07:02;6.13;;;4.20;;
13048;SDS011;6591;51.446;5.404;2024-02-16T10:09:38;7.23;;;4.13;;
13048;SDS011;6591;51.446;5.404;2024-02-16T10:12:08;5.97;;;4.07;;
13048;SDS011;6591;51.446;5.404;2024-02-16T10:14:36;6.03;;;3.83;;
13048;SDS011;6591;51.446;5.404;2024-02-16T10:17:05;5.03;;;3.80;;
13048;SDS011;6591;51.446;5.404;2024-02-16T10:19:33;6.50;;;3.87;;
13048;SDS011;6591;51.446;5.404;2024-02-16T10:22:09;7.00;;;3.73;;
13048;SDS011;6591;51.446;5.404;2024-02-16T10:24:38;5.07;;;3.80;;
13048;SDS011;6591;51.446;5.404;2024-02-16T10:27:06;5.20;;;3.77;;
13048;SDS011;6591;51.446;5.404;2024-02-16T10:29:43;4.57;;;3.53;;
13048;SDS011;6591;51.446;5.404;2024-02-16T10:32:12;7.93;;;3.80;;
13048;SDS011;6591;51.446;5.404;2024-02-16T10:34:40;6.87;;;4.40;;
13048;SDS011;6591;51.446;5.404;2024-02-16T10:37:09;5.90;;;3.57;;
13048;SDS011;6591;51.446;5.404;2024-02-16T10:39:39;6.40;;;3.90;;
13048;SDS011;6591;51.446;5.404;2024-02-16T10:42:08;4.63;;;3.83;;
13048;SDS011;6591;51.446;5.404;2024-02-16T10:44:38;7.20;;;3.77;;
13048;SDS011;6591;51.446;5.404;2024-02-16T10:47:09;7.23;;;3.83;;
13048;SDS011;6591;51.446;5.404;2024-02-16T10:49:36;9.30;;;4.70;;
13048;SDS011;6591;51.446;5.404;2024-02-16T10:52:04;5.77;;;4.10;;
13048;SDS011;6591;51.446;5.404;2024-02-16T10:54:34;9.77;;;4.57;;
13048;SDS011;6591;51.446;5.404;2024-02-16T10:57:08;6.63;;;4.40;;
13048;SDS011;6591;51.446;5.404;2024-02-16T10:59:42;6.70;;;4.00;;
13048;SDS011;6591;51.446;5.404;2024-02-16T11:02:11;8.97;;;4.60;;
13048;SDS011;6591;51.446;5.404;2024-02-16T11:04:39;5.23;;;3.97;;
13048;SDS011;6591;51.446;5.404;2024-02-16T11:07:10;6.63;;;4.10;;
13048;SDS011;6591;51.446;5.404;2024-02-16T11:09:46;7.37;;;4.80;;
13048;SDS011;6591;51.446;5.404;2024-02-16T11:12:15;10.20;;;4.60;;
13048;SDS011;6591;51.446;5.404;2024-02-16T11:14:46;5.67;;;4.30;;
13048;SDS011;6591;51.446;5.404;2024-02-16T11:17:20;9.40;;;4.87;;
13048;SDS011;6591;51.446;5.404;2024-02-16T11:19:49;10.10;;;5.10;;
13048;SDS011;6591;51.446;5.404;2024-02-16T11:22:17;9.50;;;4.53;;
13048;SDS011;6591;51.446;5.404;2024-02-16T11:24:48;5.97;;;4.83;;
13048;SDS011;6591;51.446;5.404;2024-02-16T11:27:22;8.40;;;4.87;;
13048;SDS011;6591;51.446;5.404;2024-02-16T11:29:49;8.20;;;4.57;;
13048;SDS011;6591;51.446;5.404;2024-02-16T11:32:20;7.40;;;5.00;;
13048;SDS011;6591;51.446;5.404;2024-02-16T11:34:47;6.90;;;5.13;;
13048;SDS011;6591;51.446;5.404;2024-02-16T11:37:15;7.57;;;4.87;;
13048;SDS011;6591;51.446;5.404;2024-02-16T11:39:43;6.10;;;4.67;;
13048;SDS011;6591;51.446;5.404;2024-02-16T11:42:13;8.10;;;5.40;;
13048;SDS011;6591;51.446;5.404;2024-02-16T11:44:50;10.60;;;5.50;;
13048;SDS011;6591;51.446;5.404;2024-02-16T11:47:23;6.53;;;4.77;;
13048;SDS011;6591;51.446;5.404;2024-02-16T11:50:08;9.47;;;5.80;;
13048;SDS011;6591;51.446;5.404;2024-02-16T11:52:38;8.93;;;5.07;;
13048;SDS011;6591;51.446;5.404;2024-02-16T11:55:08;6.90;;;4.90;;
13048;SDS011;6591;51.446;5.404;2024-02-16T11:57:38;9.57;;;5.50;;
13048;SDS011;6591;51.446;5.404;2024-02-16T12:00:06;7.20;;;5.23;;
13048;SDS011;6591;51.446;5.404;2024-02-16T12:02:35;7.50;;;4.73;;
13048;SDS011;6591;51.446;5.404;2024-02-16T12:05:03;6.53;;;5.10;;
13048;SDS011;6591;51.446;5.404;2024-02-16T12:07:31;7.40;;;5.03;;
13048;SDS011;6591;51.446;5.404;2024-02-16T12:10:01;6.43;;;4.93;;
13048;SDS011;6591;51.446;5.404;2024-02-16T12:12:32;8.43;;;6.03;;
13048;SDS011;6591;51.446;5.404;2024-02-16T12:15:01;6.67;;;5.80;;
13048;SDS011;6591;51.446;5.404;2024-02-16T12:17:30;7.50;;;5.90;;
13048;SDS011;6591;51.446;5.404;2024-02-16T12:19:57;7.73;;;5.97;;
13048;SDS011;6591;51.446;5.404;2024-02-16T12:22:24;8.97;;;5.77;;
13048;SDS011;6591;51.446;5.404;2024-02-16T12:24:52;8.47;;;6.93;;
13048;SDS011;6591;51.446;5.404;2024-02-16T12:27:19;8.67;;;7.47;;
13048;SDS011;6591;51.446;5.404;2024-02-16T12:29:46;9.47;;;8.00;;
13048;SDS011;6591;51.446;5.404;2024-02-16T12:32:13;9.03;;;7.30;;
13048;SDS011;6591;51.446;5.404;2024-02-16T12:34:46;8.77;;;7.40;;
13048;SDS011;6591;51.446;5.404;2024-02-16T12:37:14;10.17;;;7.47;;
13048;SDS011;6591;51.446;5.404;2024-02-16T12:39:43;7.27;;;6.57;;
13048;SDS011;6591;51.446;5.404;2024-02-16T12:42:11;8.57;;;7.60;;
13048;SDS011;6591;51.446;5.404;2024-02-16T12:44:39;9.17;;;8.27;;
13048;SDS011;6591;51.446;5.404;2024-02-16T12:47:07;8.47;;;7.67;;
13048;SDS011;6591;51.446;5.404;2024-02-16T12:49:34;7.70;;;7.00;;
13048;SDS011;6591;51.446;5.404;2024-02-16T12:52:02;7.93;;;7.13;;
13048;SDS011;6591;51.446;5.404;2024-02-16T12:54:29;7.70;;;7.00;;
13048;SDS011;6591;51.446;5.404;2024-02-16T12:56:58;7.37;;;6.67;;
13048;SDS011;6591;51.446;5.404;2024-02-16T12:59:25;7.80;;;7.10;;
13048;SDS011;6591;51.446;5.404;2024-02-16T13:01:52;7.77;;;6.73;;
13048;SDS011;6591;51.446;5.404;2024-02-16T13:04:20;8.60;;;7.07;;
13048;SDS011;6591;51.446;5.404;2024-02-16T13:06:48;7.47;;;6.77;;
13048;SDS011;6591;51.446;5.404;2024-02-16T13:09:17;8.53;;;6.97;;
13048;SDS011;6591;51.446;5.404;2024-02-16T13:11:44;7.00;;;6.30;;
13048;SDS011;6591;51.446;5.404;2024-02-16T13:14:11;6.23;;;5.63;;
13048;SDS011;6591;51.446;5.404;2024-02-16T13:16:39;6.47;;;5.83;;
13048;SDS011;6591;51.446;5.404;2024-02-16T13:19:06;6.27;;;5.67;;
13048;SDS011;6591;51.446;5.404;2024-02-16T13:21:33;5.30;;;4.80;;
13048;SDS011;6591;51.446;5.404;2024-02-16T13:24:01;6.07;;;5.20;;
13048;SDS011;6591;51.446;5.404;2024-02-16T13:26:28;5.57;;;5.07;;
13048;SDS011;6591;51.446;5.404;2024-02-16T13:28:56;5.57;;;5.07;;
13048;SDS011;6591;51.446;5.404;2024-02-16T13:31:23;5.47;;;4.80;;
13048;SDS011;6591;51.446;5.404;2024-02-16T13:33:52;6.20;;;5.03;;
13048;SDS011;6591;51.446;5.404;2024-02-16T13:36:20;5.43;;;4.93;;
13048;SDS011;6591;51.446;5.404;2024-02-16T13:38:48;5.60;;;4.67;;
13048;SDS011;6591;51.446;5.404;2024-02-16T13:41:15;4.77;;;4.37;;
13048;SDS011;6591;51.446;5.404;2024-02-16T13:43:46;5.60;;;4.70;;
13048;SDS011;6591;51.446;5.404;2024-02-16T13:46:13;4.43;;;4.00;;
13048;SDS011;6591;51.446;5.404;2024-02-16T13:48:41;4.70;;;4.20;;
13048;SDS011;6591;51.446;5.404;2024-02-16T13:51:09;5.13;;;4.63;;
13048;SDS011;6591;51.446;5.404;2024-02-16T13:53:36;5.23;;;4.70;;
13048;SDS011;6591;51.446;5.404;2024-02-16T13:56:04;4.77;;;4.27;;
13048;SDS011;6591;51.446;5.404;2024-02-16T13:58:32;5.10;;;4.50;;
13048;SDS011;6591;51.446;5.404;2024-02-16T14:01:01;5.23;;;4.47;;
13048;SDS011;6591;51.446;5.404;2024-02-16T14:03:32;6.43;;;5.10;;
13048;SDS011;6591;51.446;5.404;2024-02-16T14:06:00;6.77;;;5.00;;
13048;SDS011;6591;51.446;5.404;2024-02-16T14:08:28;5.40;;;4.90;;
13048;SDS011;6591;51.446;5.404;2024-02-16T14:10:56;5.80;;;5.20;;
13048;SDS011;6591;51.446;5.404;2024-02-16T14:13:23;6.53;;;4.90;;
13048;SDS011;6591;51.446;5.404;2024-02-16T14:15:51;6.77;;;5.23;;
13048;SDS011;6591;51.446;5.404;2024-02-16T14:18:18;5.90;;;5.13;;
13048;SDS011;6591;51.446;5.404;2024-02-16T14:21:00;7.17;;;5.20;;
13048;SDS011;6591;51.446;5.404;2024-02-16T14:23:32;6.27;;;5.67;;
13048;SDS011;6591;51.446;5.404;2024-02-16T14:25:59;7.03;;;6.33;;
13048;SDS011;6591;51.446;5.404;2024-02-16T14:28:26;7.27;;;6.57;;
13048;SDS011;6591;51.446;5.404;2024-02-16T14:30:53;7.27;;;6.57;;
13048;SDS011;6591;51.446;5.404;2024-02-16T14:33:20;6.90;;;6.27;;
13048;SDS011;6591;51.446;5.404;2024-02-16T14:35:59;6.30;;;5.70;;
13048;SDS011;6591;51.446;5.404;2024-02-16T14:38:28;6.03;;;5.50;;
13048;SDS011;6591;51.446;5.404;2024-02-16T14:40:55;5.97;;;5.37;;
13048;SDS011;6591;51.446;5.404;2024-02-16T14:43:22;6.63;;;5.27;;
13048;SDS011;6591;51.446;5.404;2024-02-16T14:45:50;5.50;;;5.00;;
13048;SDS011;6591;51.446;5.404;2024-02-16T14:48:17;6.53;;;5.80;;
13048;SDS011;6591;51.446;5.404;2024-02-16T14:50:44;4.97;;;4.57;;
13048;SDS011;6591;51.446;5.404;2024-02-16T14:53:11;5.10;;;4.70;;
13048;SDS011;6591;51.446;5.404;2024-02-16T14:55:38;5.33;;;4.90;;
13048;SDS011;6591;51.446;5.404;2024-02-16T14:58:05;4.60;;;4.20;;
13048;SDS011;6591;51.446;5.404;2024-02-16T15:00:33;4.03;;;3.67;;
13048;SDS011;6591;51.446;5.404;2024-02-16T15:03:02;4.50;;;3.50;;
13048;SDS011;6591;51.446;5.404;2024-02-16T15:05:30;4.27;;;3.60;;